createdAt,value
2019-03-25T00:00:52.294Z,63.70
2019-03-25T00:03:23.978Z,69.37
2019-03-25T00:05:55.782Z,65.83
2019-03-25T00:08:27.698Z,67.80
2019-03-25T00:10:59.378Z,66.37
2019-03-25T00:13:31.067Z,70.53
2019-03-25T00:16:02.744Z,66.00
2019-03-25T00:18:34.545Z,71.80
2019-03-25T00:21:07.064Z,69.40
2019-03-25T00:23:38.866Z,67.30
2019-03-25T00:26:10.908Z,64.37
2019-03-25T00:28:42.348Z,66.97
2019-03-25T00:31:14.030Z,72.70
2019-03-25T00:33:45.238Z,69.57
2019-03-25T00:36:16.909Z,69.93
2019-03-25T00:38:48.353Z,73.10
2019-03-25T00:41:20.034Z,73.33
2019-03-25T00:43:51.476Z,65.50
2019-03-25T00:46:23.518Z,74.27
2019-03-25T00:48:55.322Z,70.97
2019-03-25T00:51:26.638Z,67.13
2019-03-25T00:53:58.200Z,64.90
2019-03-25T00:56:29.884Z,75.17
2019-03-25T00:59:02.044Z,64.77
2019-03-25T01:01:33.368Z,63.20
2019-03-25T01:04:05.406Z,74.57
2019-03-25T01:06:36.608Z,64.40
2019-03-25T01:09:09.007Z,62.57
2019-03-25T01:11:49.106Z,65.70
2019-03-25T01:14:14.290Z,65.83
2019-03-25T01:16:45.852Z,73.10
2019-03-25T01:19:17.056Z,66.33
2019-03-25T01:21:49.213Z,73.30
2019-03-25T01:24:22.096Z,69.03
2019-03-25T01:26:53.898Z,76.00
2019-03-25T01:29:25.222Z,67.70
2019-03-25T01:31:56.542Z,67.70
2019-03-25T01:34:28.702Z,68.70
2019-03-25T01:37:00.504Z,74.10
2019-03-25T01:39:31.704Z,70.67
2019-03-25T01:42:03.146Z,66.57
2019-03-25T01:44:34.712Z,74.63
2019-03-25T01:47:06.628Z,64.20
2019-03-25T01:49:38.430Z,68.43
2019-03-25T01:52:09.630Z,71.43
2019-03-25T01:54:41.552Z,69.00
2019-03-25T01:57:13.352Z,69.73
2019-03-25T01:59:45.154Z,71.97
2019-03-25T02:02:16.597Z,70.00
2019-03-25T02:04:48.040Z,71.60
2019-03-25T02:07:20.676Z,69.73
2019-03-25T02:09:52.359Z,70.20
2019-03-25T02:12:24.284Z,67.47
2019-03-25T02:14:55.720Z,70.33
2019-03-25T02:17:27.524Z,76.00
2019-03-25T02:19:59.564Z,73.17
2019-03-25T02:22:32.127Z,76.20
2019-03-25T02:25:03.887Z,68.17
2019-03-25T02:27:35.209Z,72.37
2019-03-25T02:30:07.134Z,70.10
2019-03-25T02:32:38.931Z,74.27
2019-03-25T02:35:16.011Z,71.23
2019-03-25T02:37:47.453Z,74.67
2019-03-25T02:40:18.900Z,69.93
2019-03-25T02:42:50.457Z,68.40
2019-03-25T02:45:22.263Z,74.67
2019-03-25T02:47:54.063Z,73.17
2019-03-25T02:50:25.742Z,72.70
2019-03-25T02:52:57.428Z,76.43
2019-03-25T02:55:40.538Z,79.90
2019-03-25T02:58:02.345Z,74.93
2019-03-25T03:00:40.146Z,69.27
2019-03-25T03:03:11.587Z,74.03
2019-03-25T03:05:43.272Z,72.50
2019-03-25T03:08:15.210Z,66.30
2019-03-25T03:10:46.791Z,80.70
2019-03-25T03:13:18.564Z,70.63
2019-03-25T03:15:51.433Z,72.70
2019-03-25T03:18:22.759Z,82.00
2019-03-25T03:20:55.166Z,81.37
2019-03-25T03:23:26.835Z,77.77
2019-03-25T03:25:58.568Z,74.70
2019-03-25T03:28:30.560Z,75.63
2019-03-25T03:31:02.002Z,74.47
2019-03-25T03:33:33.687Z,77.07
2019-03-25T03:36:05.244Z,69.20
2019-03-25T03:38:36.923Z,74.20
2019-03-25T03:41:08.964Z,72.60
2019-03-25T03:43:41.606Z,73.73
2019-03-25T03:46:13.198Z,72.40
2019-03-25T03:48:44.730Z,65.73
2019-03-25T03:51:16.289Z,73.73
2019-03-25T03:53:48.212Z,81.13
2019-03-25T03:56:20.013Z,85.03
2019-03-25T03:58:52.298Z,70.43
2019-03-25T04:01:23.618Z,73.80
2019-03-25T04:03:55.544Z,71.17
2019-03-25T04:06:27.339Z,76.80
2019-03-25T04:08:59.263Z,88.83
2019-03-25T04:11:30.822Z,72.00
2019-03-25T04:14:02.746Z,72.80
2019-03-25T04:16:34.424Z,76.77
2019-03-25T04:19:06.223Z,82.07
2019-03-25T04:21:38.033Z,71.20
2019-03-25T04:24:10.427Z,67.73
2019-03-25T04:26:41.988Z,82.30
2019-03-25T04:29:13.311Z,71.70
2019-03-25T04:31:44.869Z,85.57
2019-03-25T04:34:16.312Z,70.53
2019-03-25T04:36:48.235Z,70.40
2019-03-25T04:39:19.673Z,72.30
2019-03-25T04:41:51.477Z,69.37
2019-03-25T04:44:22.915Z,70.60
2019-03-25T04:46:55.083Z,77.07
2019-03-25T04:49:26.641Z,73.90
2019-03-25T04:51:58.321Z,68.23
2019-03-25T04:54:30.645Z,77.87
2019-03-25T04:57:03.123Z,73.73
2019-03-25T04:59:34.445Z,73.57
2019-03-25T05:02:06.007Z,73.43
2019-03-25T05:04:38.168Z,79.13
2019-03-25T05:07:09.727Z,81.10
2019-03-25T05:09:41.289Z,71.17
2019-03-25T05:12:13.089Z,74.07
2019-03-25T05:14:44.892Z,72.07
2019-03-25T05:17:16.091Z,83.60
2019-03-25T05:19:47.773Z,69.33
2019-03-25T05:22:19.097Z,80.43
2019-03-25T05:24:50.537Z,77.70
2019-03-25T05:27:22.697Z,79.17
2019-03-25T05:29:54.259Z,75.03
2019-03-25T05:32:26.061Z,74.97
2019-03-25T05:34:58.581Z,74.83
2019-03-25T05:37:29.904Z,70.37
2019-03-25T05:40:01.824Z,72.90
2019-03-25T05:42:33.147Z,69.20
2019-03-25T05:45:04.706Z,73.17
2019-03-25T05:47:36.391Z,63.77
2019-03-25T05:52:46.590Z,67.33
2019-03-25T05:55:18.031Z,64.50
2019-03-25T05:57:49.472Z,67.30
2019-03-25T06:00:22.834Z,60.70
2019-03-25T06:02:54.877Z,52.43
2019-03-25T06:05:27.394Z,53.93
2019-03-25T06:07:58.841Z,47.83
2019-03-25T06:10:30.759Z,49.43
2019-03-25T06:13:03.162Z,54.67
2019-03-25T06:15:34.602Z,45.53
2019-03-25T06:18:06.527Z,49.87
2019-03-25T06:20:38.206Z,41.90
2019-03-25T06:23:09.645Z,40.70
2019-03-25T06:25:41.391Z,44.27
2019-03-25T06:28:12.888Z,36.10
2019-03-25T06:30:44.456Z,42.33
2019-03-25T06:33:16.012Z,36.53
2019-03-25T06:35:47.335Z,39.07
2019-03-25T06:38:19.253Z,36.80
2019-03-25T06:40:51.296Z,35.43
2019-03-25T06:43:22.977Z,39.07
2019-03-25T06:45:54.902Z,28.60
2019-03-25T06:48:27.186Z,31.10
2019-03-25T06:50:59.102Z,34.93
2019-03-25T06:53:31.022Z,33.50
2019-03-25T06:56:02.824Z,31.80
2019-03-25T06:58:34.144Z,32.73
2019-03-25T07:01:05.591Z,34.73
2019-03-25T07:03:37.147Z,29.83
2019-03-25T07:06:08.471Z,30.13
2019-03-25T07:08:39.792Z,26.73
2019-03-25T07:11:12.193Z,23.97
2019-03-25T07:13:44.236Z,28.23
2019-03-25T07:16:15.794Z,24.77
2019-03-25T07:18:47.236Z,30.10
2019-03-25T07:21:20.553Z,25.10
2019-03-25T07:23:53.118Z,22.70
2019-03-25T07:26:24.800Z,25.67
2019-03-25T07:28:56.598Z,23.07
2019-03-25T07:31:28.282Z,24.27
2019-03-25T07:34:00.565Z,25.50
2019-03-25T07:36:32.245Z,26.07
2019-03-25T07:39:04.768Z,24.97
2019-03-25T07:41:36.326Z,23.00
2019-03-25T07:44:08.841Z,26.17
2019-03-25T07:46:40.771Z,20.20
2019-03-25T07:49:13.411Z,25.13
2019-03-25T07:51:45.090Z,22.60
2019-03-25T07:54:16.294Z,22.10
2019-03-25T07:56:48.578Z,22.03
2019-03-25T07:59:20.496Z,21.90
2019-03-25T08:01:52.060Z,19.63
2019-03-25T08:04:24.223Z,25.60
2019-03-25T08:06:56.747Z,30.83
2019-03-25T08:09:28.456Z,19.70
2019-03-25T08:12:00.119Z,24.30
2019-03-25T08:14:31.551Z,18.23
2019-03-25T08:17:03.225Z,26.87
2019-03-25T08:19:35.142Z,21.70
2019-03-25T08:22:06.826Z,21.10
2019-03-25T08:24:38.027Z,20.13
2019-03-25T08:27:09.591Z,22.83
2019-03-25T08:29:41.393Z,26.00
2019-03-25T08:32:12.591Z,20.30
2019-03-25T08:34:47.152Z,18.93
2019-03-25T08:37:19.195Z,29.70
2019-03-25T08:39:50.755Z,14.97
2019-03-25T08:42:22.197Z,16.50
2019-03-25T08:44:53.997Z,19.93
2019-03-25T08:47:25.560Z,14.00
2019-03-25T08:49:57.001Z,17.00
2019-03-25T08:52:28.327Z,21.77
2019-03-25T08:54:59.887Z,16.77
2019-03-25T08:57:31.683Z,20.13
2019-03-25T09:00:03.009Z,15.60
2019-03-25T09:02:34.449Z,15.50
2019-03-25T09:07:48.128Z,26.50
2019-03-25T09:10:20.411Z,19.97
2019-03-25T09:12:51.976Z,17.50
2019-03-25T09:15:24.136Z,15.20
2019-03-25T09:17:55.332Z,12.80
2019-03-25T09:20:27.025Z,16.13
2019-03-25T09:22:59.419Z,14.90
2019-03-25T09:25:32.058Z,12.40
2019-03-25T09:28:03.739Z,18.00
2019-03-25T09:31:17.780Z,15.10
2019-03-25T09:33:50.547Z,19.73
2019-03-25T09:36:22.831Z,13.07
2019-03-25T09:38:54.026Z,17.93
2019-03-25T09:41:26.066Z,12.27
2019-03-25T09:43:57.746Z,11.70
2019-03-25T09:46:29.431Z,12.00
2019-03-25T09:49:01.229Z,11.60
2019-03-25T09:51:32.792Z,12.20
2019-03-25T09:54:04.832Z,13.40
2019-03-25T09:56:36.152Z,11.73
2019-03-25T09:59:07.594Z,12.37
2019-03-25T10:01:39.158Z,9.60
2019-03-25T10:04:10.478Z,10.90
2019-03-25T10:06:42.036Z,14.40
2019-03-25T10:09:14.679Z,12.10
2019-03-25T10:11:46.360Z,8.13
2019-03-25T10:14:18.047Z,10.23
2019-03-25T10:16:49.482Z,10.87
2019-03-25T10:19:21.289Z,13.33
2019-03-25T10:21:52.725Z,7.37
2019-03-25T10:24:27.780Z,13.87
2019-03-25T10:26:59.449Z,10.23
2019-03-25T10:29:31.127Z,7.63
2019-03-25T10:32:02.451Z,10.37
2019-03-25T10:34:34.372Z,6.80
2019-03-25T10:37:05.813Z,5.83
2019-03-25T10:39:37.014Z,8.00
2019-03-25T10:42:08.694Z,8.93
2019-03-25T10:44:40.386Z,5.27
2019-03-25T10:47:11.706Z,7.00
2019-03-25T10:49:43.140Z,4.67
2019-03-25T10:52:14.704Z,4.20
2019-03-25T10:54:46.389Z,5.80
2019-03-25T10:57:17.944Z,6.77
2019-03-25T10:59:50.107Z,4.73
2019-03-25T11:02:21.430Z,5.67
2019-03-25T11:04:53.707Z,4.40
2019-03-25T11:07:25.344Z,5.77
2019-03-25T11:09:57.188Z,4.87
2019-03-25T11:12:28.512Z,6.10
2019-03-25T11:14:59.952Z,5.80
2019-03-25T11:17:31.634Z,4.27
2019-03-25T11:20:04.277Z,3.67
2019-03-25T11:22:36.556Z,4.10
2019-03-25T11:25:08.837Z,3.97
2019-03-25T11:27:40.280Z,3.70
2019-03-25T11:30:12.678Z,5.23
2019-03-25T11:32:44.242Z,1.93
2019-03-25T11:35:19.935Z,6.20
2019-03-25T11:37:51.802Z,2.33
2019-03-25T11:40:23.013Z,5.13
2019-03-25T11:42:54.331Z,2.83
2019-03-25T11:45:25.889Z,6.70
2019-03-25T11:47:57.328Z,4.07
2019-03-25T11:50:29.130Z,2.33
2019-03-25T11:53:01.171Z,4.93
2019-03-25T11:55:33.213Z,3.27
2019-03-25T11:58:05.265Z,3.77
2019-03-25T12:00:37.536Z,19.63
2019-03-25T12:03:08.855Z,4.10
2019-03-25T12:05:40.775Z,6.47
2019-03-25T12:08:12.468Z,3.07
2019-03-25T12:10:44.020Z,2.63
2019-03-25T12:13:15.701Z,3.00
2019-03-25T12:15:47.263Z,4.17
2019-03-25T12:18:18.707Z,6.53
2019-03-25T12:20:50.145Z,3.97
2019-03-25T12:23:26.326Z,6.73
2019-03-25T12:25:55.068Z,3.63
2019-03-25T12:28:26.392Z,4.10
2019-03-25T12:30:58.431Z,3.33
2019-03-25T12:33:31.196Z,4.00
2019-03-25T12:36:03.476Z,4.33
2019-03-25T12:38:34.915Z,3.80
2019-03-25T12:41:07.195Z,7.30
2019-03-25T12:43:38.517Z,4.63
2019-03-25T12:46:09.965Z,2.70
2019-03-25T12:48:41.041Z,5.67
2019-03-25T12:51:12.359Z,13.97
2019-03-25T12:53:44.567Z,5.20
2019-03-25T12:56:16.563Z,3.13
2019-03-25T12:58:48.725Z,5.03
2019-03-25T13:01:20.167Z,4.33
2019-03-25T13:03:52.328Z,6.13
2019-03-25T13:06:23.887Z,4.00
2019-03-25T13:08:55.571Z,12.10
2019-03-25T13:11:27.491Z,15.60
2019-03-25T13:13:58.573Z,4.23
2019-03-25T13:16:30.380Z,4.80
2019-03-25T13:19:01.935Z,8.27
2019-03-25T13:21:33.858Z,8.83
2019-03-25T13:24:05.297Z,4.50
2019-03-25T13:26:36.617Z,8.47
2019-03-25T13:29:07.939Z,5.00
2019-03-25T13:31:40.340Z,4.20
2019-03-25T13:34:12.381Z,8.67
2019-03-25T13:36:43.823Z,5.10
2019-03-25T13:39:15.266Z,5.80
2019-03-25T13:41:46.707Z,11.60
2019-03-25T13:44:18.268Z,6.07
2019-03-25T13:46:49.951Z,9.40
2019-03-25T13:49:21.391Z,4.97
2019-03-25T13:51:53.436Z,9.20
2019-03-25T13:54:25.115Z,2.60
2019-03-25T13:56:56.797Z,2.43
2019-03-25T13:59:28.611Z,9.23
2019-03-25T14:02:00.644Z,4.57
2019-03-25T14:04:32.316Z,4.80
2019-03-25T14:07:04.046Z,11.70
2019-03-25T14:09:36.400Z,6.27
2019-03-25T14:12:08.801Z,3.90
2019-03-25T14:14:41.203Z,3.40
2019-03-25T14:17:12.889Z,4.10
2019-03-25T14:19:45.651Z,15.30
2019-03-25T14:22:17.208Z,4.20
2019-03-25T14:24:49.488Z,18.07
2019-03-25T14:27:21.650Z,4.73
2019-03-25T14:29:53.334Z,6.40
2019-03-25T14:32:25.610Z,3.30
2019-03-25T14:34:57.298Z,4.50
2019-03-25T14:37:29.095Z,4.67
2019-03-25T14:40:01.258Z,3.37
2019-03-25T14:42:32.586Z,5.60
2019-03-25T14:45:06.660Z,6.23
2019-03-25T14:47:37.740Z,5.40
2019-03-25T14:50:10.262Z,5.33
2019-03-25T14:52:41.821Z,4.10
2019-03-25T14:55:14.346Z,4.70
2019-03-25T14:57:45.668Z,5.43
2019-03-25T15:00:24.743Z,4.73
2019-03-25T15:02:49.986Z,5.93
2019-03-25T15:05:22.026Z,4.30
2019-03-25T15:07:53.474Z,4.23
2019-03-25T15:10:25.393Z,3.40
2019-03-25T15:12:57.192Z,3.43
2019-03-25T15:15:29.235Z,5.13
2019-03-25T15:18:00.794Z,3.63
2019-03-25T15:20:32.119Z,4.60
2019-03-25T15:23:03.917Z,7.30
2019-03-25T15:25:36.326Z,3.20
2019-03-25T15:28:07.759Z,2.73
2019-03-25T15:30:39.204Z,6.07
2019-03-25T15:33:10.883Z,2.50
2019-03-25T15:35:42.682Z,4.90
2019-03-25T15:38:14.967Z,3.80
2019-03-25T15:40:46.886Z,2.80
2019-03-25T15:43:19.406Z,4.77
2019-03-25T15:45:52.047Z,4.37
2019-03-25T15:48:24.814Z,6.47
2019-03-25T15:50:56.252Z,2.70
2019-03-25T15:53:28.760Z,3.07
2019-03-25T15:56:01.897Z,4.10
2019-03-25T15:58:33.335Z,2.63
2019-03-25T16:01:04.897Z,2.97
2019-03-25T16:03:36.938Z,5.23
2019-03-25T16:06:08.979Z,2.80
2019-03-25T16:08:40.419Z,6.00
2019-03-25T16:11:11.982Z,3.30
2019-03-25T16:13:43.662Z,3.97
2019-03-25T16:16:15.108Z,4.73
2019-03-25T16:18:46.305Z,5.60
2019-03-25T16:21:17.871Z,7.50
2019-03-25T16:23:49.548Z,5.50
2019-03-25T16:26:20.868Z,8.20
2019-03-25T16:28:52.435Z,6.57
2019-03-25T16:31:26.514Z,3.53
2019-03-25T16:33:57.954Z,4.67
2019-03-25T16:36:30.482Z,2.80
2019-03-25T16:39:04.317Z,3.20
2019-03-25T16:41:37.077Z,4.77
2019-03-25T16:44:11.639Z,2.60
2019-03-25T16:46:43.078Z,2.20
2019-03-25T16:49:14.405Z,2.20
2019-03-25T16:51:45.962Z,3.03
2019-03-25T16:54:18.485Z,2.43
2019-03-25T16:56:49.925Z,3.37
2019-03-25T16:59:22.328Z,2.57
2019-03-25T17:01:53.888Z,3.50
2019-03-25T17:04:25.809Z,3.67
2019-03-25T17:06:57.130Z,2.60
2019-03-25T17:09:29.653Z,10.40
2019-03-25T17:12:01.938Z,2.33
2019-03-25T17:14:33.857Z,3.17
2019-03-25T17:17:05.297Z,1.77
2019-03-25T17:19:37.463Z,2.60
2019-03-25T17:22:09.619Z,2.37
2019-03-25T17:24:41.181Z,3.70
2019-03-25T17:27:13.220Z,2.60
2019-03-25T17:29:45.024Z,2.63
2019-03-25T17:32:16.702Z,6.83
2019-03-25T17:34:48.502Z,2.57
2019-03-25T17:37:20.904Z,2.97
2019-03-25T17:39:52.586Z,5.80
2019-03-25T17:42:25.593Z,2.60
2019-03-25T17:44:57.507Z,3.60
2019-03-25T17:47:30.390Z,7.20
2019-03-25T17:50:02.673Z,4.90
2019-03-25T17:52:34.353Z,5.30
2019-03-25T17:55:06.515Z,2.93
2019-03-25T17:57:38.083Z,5.03
2019-03-25T18:00:10.836Z,9.20
2019-03-25T18:02:42.516Z,4.20
2019-03-25T18:05:18.941Z,4.40
2019-03-25T18:07:50.441Z,3.73
2019-03-25T18:10:22.121Z,3.27
2019-03-25T18:12:53.925Z,4.77
2019-03-25T18:15:26.203Z,4.20
2019-03-25T18:17:59.206Z,2.90
2019-03-25T18:20:33.285Z,5.00
2019-03-25T18:23:04.728Z,5.07
2019-03-25T18:25:37.011Z,4.20
2019-03-25T18:28:08.215Z,2.20
2019-03-25T18:30:40.495Z,2.10
2019-03-25T18:33:12.301Z,2.73
2019-03-25T18:35:44.457Z,2.67
2019-03-25T18:38:15.903Z,2.43
2019-03-25T18:40:47.697Z,4.70
2019-03-25T18:43:19.386Z,3.50
2019-03-25T18:45:51.426Z,6.83
2019-03-25T18:48:23.825Z,2.53
2019-03-25T18:50:55.620Z,2.30
2019-03-25T18:53:28.162Z,9.03
2019-03-25T18:55:59.465Z,2.93
2019-03-25T18:58:31.265Z,2.80
2019-03-25T19:01:03.072Z,3.33
2019-03-25T19:03:35.365Z,3.63
2019-03-25T19:06:07.155Z,3.53
2019-03-25T19:08:39.209Z,7.43
2019-03-25T19:11:10.632Z,3.00
2019-03-25T19:13:42.821Z,5.10
2019-03-25T19:16:15.079Z,3.83
2019-03-25T19:18:47.481Z,3.60
2019-03-25T19:21:20.479Z,5.13
2019-03-25T19:23:52.416Z,4.50
2019-03-25T19:26:24.335Z,3.77
2019-03-25T19:28:55.650Z,4.37
2019-03-25T19:31:27.206Z,3.70
2019-03-25T19:33:58.890Z,3.20
2019-03-25T19:36:31.167Z,3.40
2019-03-25T19:39:05.183Z,4.00
2019-03-25T19:41:38.166Z,4.67
2019-03-25T19:44:13.172Z,3.20
2019-03-25T19:46:46.097Z,6.60
2019-03-25T19:49:17.489Z,3.83
2019-03-25T19:51:48.948Z,4.23
2019-03-25T19:54:20.374Z,4.07
2019-03-25T19:56:52.418Z,3.50
2019-03-25T19:59:23.874Z,3.50
2019-03-25T20:01:55.435Z,3.17
2019-03-25T20:04:28.911Z,2.40
2019-03-25T20:07:02.030Z,3.20
2019-03-25T20:09:34.314Z,1.80
2019-03-25T20:12:06.103Z,2.00
2019-03-25T20:14:37.548Z,2.30
2019-03-25T20:17:09.584Z,2.13
2019-03-25T20:19:41.986Z,2.20
2019-03-25T20:22:13.310Z,3.00
2019-03-25T20:24:45.130Z,1.63
2019-03-25T20:27:16.921Z,3.13
2019-03-25T20:29:49.484Z,3.20
2019-03-25T20:32:31.226Z,2.13
2019-03-25T20:34:55.092Z,1.90
2019-03-25T20:37:26.402Z,2.20
2019-03-25T20:39:57.967Z,2.40
2019-03-25T20:42:29.400Z,2.80
2019-03-25T20:45:01.129Z,3.70
2019-03-25T20:47:32.564Z,3.10
2019-03-25T20:50:04.379Z,4.40
2019-03-25T20:52:36.042Z,3.30
2019-03-25T20:55:08.902Z,3.10
2019-03-25T20:57:40.934Z,3.40
2019-03-25T21:00:13.339Z,4.53
2019-03-25T21:02:45.593Z,8.47
2019-03-25T21:05:20.927Z,3.73
2019-03-25T21:07:52.109Z,7.87
2019-03-25T21:10:23.897Z,7.00
2019-03-25T21:12:56.173Z,5.20
2019-03-25T21:15:27.856Z,6.00
2019-03-25T21:17:59.421Z,4.63
2019-03-25T21:20:30.938Z,8.10
2019-03-25T21:23:02.968Z,3.93
2019-03-25T21:25:34.412Z,5.43
2019-03-25T21:28:05.920Z,4.17
2019-03-25T21:30:47.475Z,4.53
2019-03-25T21:33:11.188Z,9.67
2019-03-25T21:35:42.865Z,4.07
2019-03-25T21:38:15.873Z,3.53
2019-03-25T21:40:47.575Z,4.87
2019-03-25T21:43:19.044Z,4.43
2019-03-25T21:45:51.150Z,4.23
2019-03-25T21:48:22.840Z,4.50
2019-03-25T21:50:54.791Z,4.73
2019-03-25T21:53:26.917Z,4.13
2019-03-25T21:55:58.367Z,4.50
2019-03-25T21:58:30.039Z,4.00
2019-03-25T22:01:01.359Z,5.00
2019-03-25T22:03:32.921Z,5.53
2019-03-25T22:06:04.722Z,4.20
2019-03-25T22:08:36.528Z,4.27
2019-03-25T22:11:07.605Z,4.50
2019-03-25T22:13:39.044Z,4.57
2019-03-25T22:16:10.847Z,5.13
2019-03-25T22:18:42.290Z,4.20
2019-03-25T22:21:14.094Z,4.50
2019-03-25T22:23:45.409Z,4.30
2019-03-25T22:26:16.730Z,3.80
2019-03-25T22:28:48.532Z,4.17
2019-03-25T22:31:19.858Z,4.17
2019-03-25T22:33:51.655Z,5.00
2019-03-25T22:36:23.818Z,5.43
2019-03-25T22:38:56.577Z,4.90
2019-03-25T22:41:28.139Z,4.33
2019-03-25T22:43:59.940Z,4.23
2019-03-25T22:46:32.221Z,6.50
2019-03-25T22:49:04.264Z,6.60
2019-03-25T22:51:35.946Z,3.77
2019-03-25T22:54:07.265Z,5.10
2019-03-25T22:56:40.146Z,4.10
2019-03-25T22:59:11.466Z,3.80
2019-03-25T23:01:42.908Z,4.13
2019-03-25T23:04:14.230Z,4.40
2019-03-25T23:06:45.677Z,3.53
2019-03-25T23:09:17.716Z,3.63
2019-03-25T23:11:49.154Z,6.43
2019-03-25T23:14:21.074Z,2.87
2019-03-25T23:16:52.754Z,3.63
2019-03-25T23:19:24.080Z,7.30
2019-03-25T23:21:55.759Z,5.50
2019-03-25T23:24:27.564Z,4.50
2019-03-25T23:27:00.204Z,4.97
2019-03-25T23:29:32.126Z,4.47
2019-03-25T23:32:04.045Z,3.97
2019-03-25T23:34:35.965Z,4.30
2019-03-25T23:37:07.046Z,4.13
2019-03-25T23:39:38.371Z,4.80
2019-03-25T23:42:11.968Z,7.03
2019-03-25T23:44:43.176Z,7.90
2019-03-25T23:47:14.973Z,4.60
2019-03-25T23:49:46.534Z,6.30
2019-03-25T23:52:17.975Z,5.60
2019-03-25T23:54:49.417Z,5.50
2019-03-25T23:57:21.337Z,5.00
2019-03-25T23:59:52.424Z,6.80
